createdAt,value
2019-04-05T00:01:18.913Z,92.50
2019-04-05T00:03:51.942Z,92.40
2019-04-05T00:06:25.202Z,92.70
2019-04-05T00:08:58.338Z,93.00
2019-04-05T00:11:31.165Z,93.40
2019-04-05T00:14:04.070Z,93.40
2019-04-05T00:16:36.905Z,93.30
2019-04-05T00:19:11.097Z,93.40
2019-04-05T00:21:44.196Z,93.30
2019-04-05T00:24:17.111Z,93.00
2019-04-05T00:26:49.906Z,92.90
2019-04-05T00:29:22.703Z,93.00
2019-04-05T00:31:55.682Z,92.80
2019-04-05T00:34:28.573Z,93.00
2019-04-05T00:37:01.383Z,93.00
2019-04-05T00:39:34.512Z,93.50
2019-04-05T00:42:07.342Z,93.80
2019-04-05T00:44:41.347Z,93.70
2019-04-05T00:47:30.933Z,93.90
2019-04-05T00:50:04.402Z,94.10
2019-04-05T00:52:37.443Z,94.30
2019-04-05T00:55:11.158Z,94.30
2019-04-05T00:57:44.136Z,93.80
2019-04-05T01:00:17.882Z,94.00
2019-04-05T01:02:50.758Z,93.60
2019-04-05T01:05:22.953Z,93.30
2019-04-05T01:07:55.212Z,93.30
2019-04-05T01:10:27.216Z,93.20
2019-04-05T01:13:00.009Z,93.30
2019-04-05T01:15:40.807Z,93.70
2019-04-05T01:18:06.061Z,94.10
2019-04-05T01:20:40.822Z,94.30
2019-04-05T01:23:14.916Z,94.50
2019-04-05T01:25:48.410Z,94.70
2019-04-05T01:28:20.977Z,95.00
2019-04-05T01:30:52.969Z,95.00
2019-04-05T01:33:25.439Z,94.80
2019-04-05T01:35:57.414Z,95.00
2019-04-05T01:38:29.778Z,94.80
2019-04-05T01:41:02.485Z,94.40
2019-04-05T01:43:34.501Z,94.10
2019-04-05T01:46:06.918Z,93.90
2019-04-05T01:48:39.183Z,94.20
2019-04-05T01:51:11.338Z,94.40
2019-04-05T01:53:44.010Z,94.10
2019-04-05T01:56:16.212Z,94.50
2019-04-05T01:58:48.495Z,94.60
2019-04-05T02:01:21.076Z,95.00
2019-04-05T02:03:53.309Z,94.50
2019-04-05T02:06:26.060Z,94.40
2019-04-05T02:08:58.237Z,94.60
2019-04-05T02:11:30.520Z,94.50
2019-04-05T02:14:02.770Z,94.40
2019-04-05T02:16:35.258Z,94.70
2019-04-05T02:19:07.485Z,95.00
2019-04-05T02:21:39.844Z,95.10
2019-04-05T02:24:12.221Z,95.40
2019-04-05T02:26:44.674Z,95.30
2019-04-05T02:29:16.942Z,95.40
2019-04-05T02:31:49.067Z,95.70
2019-04-05T02:34:21.446Z,95.20
2019-04-05T02:36:53.466Z,95.00
2019-04-05T02:39:25.532Z,95.60
2019-04-05T02:41:59.434Z,95.50
2019-04-05T02:44:34.470Z,95.30
2019-04-05T02:47:07.562Z,94.90
2019-04-05T02:49:41.723Z,95.70
2019-04-05T02:52:17.127Z,96.00
2019-04-05T02:54:51.445Z,96.00
2019-04-05T02:57:25.271Z,96.00
2019-04-05T02:59:58.235Z,95.80
2019-04-05T03:02:32.165Z,96.10
2019-04-05T03:05:04.408Z,95.90
2019-04-05T03:07:36.704Z,95.80
2019-04-05T03:10:09.405Z,95.60
2019-04-05T03:12:41.918Z,95.70
2019-04-05T03:15:14.751Z,95.40
2019-04-05T03:17:47.274Z,95.70
2019-04-05T03:20:19.790Z,95.90
2019-04-05T03:22:52.064Z,96.00
2019-04-05T03:25:24.494Z,95.80
2019-04-05T03:27:57.100Z,96.70
2019-04-05T03:30:29.592Z,96.30
2019-04-05T03:33:02.261Z,96.20
2019-04-05T03:35:34.520Z,95.90
2019-04-05T03:38:07.555Z,95.90
2019-04-05T03:40:40.509Z,96.00
2019-04-05T03:43:13.386Z,96.00
2019-04-05T03:45:46.507Z,95.70
2019-04-05T03:48:19.105Z,95.70
2019-04-05T03:50:51.577Z,95.80
2019-04-05T03:53:24.436Z,95.90
2019-04-05T03:55:57.447Z,95.90
2019-04-05T03:58:30.479Z,96.00
2019-04-05T04:01:03.476Z,96.50
2019-04-05T04:03:36.352Z,96.70
2019-04-05T04:06:08.885Z,97.10
2019-04-05T04:08:42.259Z,96.80
2019-04-05T04:11:14.511Z,97.50
2019-04-05T04:13:47.352Z,97.10
2019-04-05T04:16:20.193Z,97.40
2019-04-05T04:18:53.035Z,97.10
2019-04-05T04:21:40.774Z,97.40
2019-04-05T04:24:13.332Z,97.60
2019-04-05T04:26:46.270Z,97.50
2019-04-05T04:29:19.917Z,97.30
2019-04-05T04:31:53.141Z,97.10
2019-04-05T04:34:25.557Z,97.00
2019-04-05T04:36:57.855Z,97.00
2019-04-05T04:39:30.506Z,96.70
2019-04-05T04:42:04.978Z,96.50
2019-04-05T04:44:37.652Z,96.30
2019-04-05T04:47:10.153Z,96.40
2019-04-05T04:49:43.090Z,96.30
2019-04-05T04:52:16.589Z,96.30
2019-04-05T04:54:48.984Z,96.30
2019-04-05T04:57:21.433Z,96.10
2019-04-05T04:59:54.478Z,95.60
2019-04-05T05:02:27.409Z,95.90
2019-04-05T05:05:00.364Z,96.10
2019-04-05T05:07:33.150Z,96.00
2019-04-05T05:10:06.666Z,95.90
2019-04-05T05:12:39.647Z,95.70
2019-04-05T05:15:13.030Z,95.80
2019-04-05T05:17:57.996Z,95.70
2019-04-05T05:20:21.034Z,95.20
2019-04-05T05:22:54.303Z,95.20
2019-04-05T05:25:27.173Z,95.30
2019-04-05T05:28:00.440Z,95.50
2019-04-05T05:30:33.157Z,95.30
2019-04-05T05:33:06.157Z,95.50
2019-04-05T05:35:38.944Z,95.30
2019-04-05T05:38:11.579Z,95.50
2019-04-05T05:40:44.111Z,95.90
2019-04-05T05:43:17.030Z,95.40
2019-04-05T05:45:49.458Z,95.60
2019-04-05T05:48:22.234Z,95.70
2019-04-05T05:50:55.550Z,94.70
2019-04-05T05:53:29.064Z,94.90
2019-04-05T05:56:01.496Z,95.00
2019-04-05T05:58:33.864Z,95.00
2019-04-05T06:01:07.203Z,95.60
2019-04-05T06:03:39.598Z,94.80
2019-04-05T06:06:11.878Z,94.80
2019-04-05T06:08:44.389Z,94.40
2019-04-05T06:11:16.940Z,94.30
2019-04-05T06:13:49.609Z,94.60
2019-04-05T06:16:21.990Z,93.50
2019-04-05T06:18:54.301Z,93.20
2019-04-05T06:21:26.897Z,92.70
2019-04-05T06:23:59.517Z,92.80
2019-04-05T06:26:31.907Z,92.80
2019-04-05T06:29:04.571Z,92.50
2019-04-05T06:31:39.013Z,92.60
2019-04-05T06:34:11.655Z,92.40
2019-04-05T06:36:44.287Z,92.00
2019-04-05T06:39:16.854Z,92.00
2019-04-05T06:41:49.136Z,91.60
2019-04-05T06:44:21.920Z,92.10
2019-04-05T06:46:54.323Z,92.00
2019-04-05T06:49:26.710Z,91.40
2019-04-05T06:51:59.019Z,91.10
2019-04-05T06:54:33.687Z,90.70
2019-04-05T06:57:06.273Z,90.60
2019-04-05T06:59:38.681Z,90.40
2019-04-05T07:02:10.980Z,90.40
2019-04-05T07:04:43.463Z,89.40
2019-04-05T07:07:17.862Z,90.20
2019-04-05T07:09:49.675Z,89.20
2019-04-05T07:12:22.485Z,89.00
2019-04-05T07:14:56.313Z,88.30
2019-04-05T07:17:29.239Z,88.60
2019-04-05T07:20:01.638Z,86.80
2019-04-05T07:22:39.165Z,87.10
2019-04-05T07:25:08.587Z,88.40
2019-04-05T07:27:41.118Z,87.80
2019-04-05T07:30:14.459Z,86.70
2019-04-05T07:32:47.005Z,86.10
2019-04-05T07:35:32.665Z,85.10
2019-04-05T07:37:53.608Z,84.60
2019-04-05T07:40:26.473Z,84.50
2019-04-05T07:42:59.118Z,84.90
2019-04-05T07:45:31.526Z,85.60
2019-04-05T07:48:03.982Z,85.40
2019-04-05T07:50:39.196Z,86.00
2019-04-05T07:53:11.881Z,85.70
2019-04-05T07:55:47.480Z,86.10
2019-04-05T07:58:20.667Z,86.40
2019-04-05T08:00:56.198Z,86.50
2019-04-05T08:03:28.909Z,85.00
2019-04-05T08:06:01.726Z,84.80
2019-04-05T08:09:13.116Z,85.00
2019-04-05T08:11:47.880Z,84.50
2019-04-05T08:14:22.581Z,83.60
2019-04-05T08:16:55.384Z,83.80
2019-04-05T08:19:28.260Z,84.30
2019-04-05T08:22:00.986Z,84.30
2019-04-05T08:24:33.607Z,84.10
2019-04-05T08:27:06.206Z,83.70
2019-04-05T08:32:39.568Z,83.70
2019-04-05T08:35:13.256Z,82.60
2019-04-05T08:37:46.455Z,82.60
2019-04-05T08:40:19.832Z,82.60
2019-04-05T08:42:53.320Z,81.50
2019-04-05T08:45:27.053Z,80.80
2019-04-05T08:48:00.383Z,80.10
2019-04-05T08:50:33.632Z,80.60
2019-04-05T08:53:07.655Z,79.30
2019-04-05T08:55:40.953Z,79.70
2019-04-05T08:58:14.491Z,78.60
2019-04-05T09:00:48.039Z,78.10
2019-04-05T09:03:21.531Z,77.80
2019-04-05T09:05:55.244Z,78.50
2019-04-05T09:08:32.108Z,75.80
2019-04-05T09:11:06.059Z,76.30
2019-04-05T09:13:39.332Z,77.20
2019-04-05T09:16:13.092Z,78.00
2019-04-05T09:18:49.393Z,76.30
2019-04-05T09:21:24.124Z,76.20
2019-04-05T09:23:59.329Z,76.00
2019-04-05T09:26:32.533Z,75.50
2019-04-05T09:29:05.871Z,75.10
2019-04-05T09:31:39.077Z,75.20
2019-04-05T09:34:12.443Z,74.30
2019-04-05T09:36:45.995Z,74.90
2019-04-05T09:39:19.572Z,75.20
2019-04-05T09:41:52.921Z,76.20
2019-04-05T09:44:26.037Z,75.00
2019-04-05T09:47:00.666Z,74.90
2019-04-05T09:49:37.011Z,74.60
2019-04-05T09:52:08.736Z,74.50
2019-04-05T09:54:42.133Z,74.10
2019-04-05T09:57:15.803Z,73.90
2019-04-05T09:59:49.148Z,75.00
2019-04-05T10:02:22.796Z,74.70
2019-04-05T10:04:56.205Z,74.40
2019-04-05T10:07:29.549Z,74.50
2019-04-05T10:10:02.669Z,74.00
2019-04-05T10:12:35.605Z,73.80
2019-04-05T10:15:26.987Z,73.90
2019-04-05T10:18:17.880Z,74.20
2019-04-05T10:21:08.767Z,74.30
2019-04-05T10:23:59.722Z,73.80
2019-04-05T10:26:50.795Z,73.50
2019-04-05T10:29:42.090Z,74.00
2019-04-05T10:32:33.290Z,73.90
2019-04-05T10:35:24.374Z,73.50
2019-04-05T10:38:20.717Z,73.40
2019-04-05T10:41:11.635Z,73.30
2019-04-05T10:44:02.846Z,74.40
2019-04-05T10:46:54.076Z,73.60
2019-04-05T10:49:45.177Z,72.50
2019-04-05T10:52:36.210Z,72.50
2019-04-05T10:55:27.490Z,72.30
2019-04-05T10:58:18.626Z,72.00
2019-04-05T11:01:09.875Z,71.30
2019-04-05T11:04:01.315Z,71.40
2019-04-05T11:06:52.883Z,70.80
2019-04-05T11:09:44.075Z,71.00
2019-04-05T11:12:35.437Z,69.90
2019-04-05T11:15:26.478Z,70.30
2019-04-05T11:18:17.429Z,70.70
2019-04-05T11:21:08.497Z,70.70
2019-04-05T11:24:00.183Z,70.10
2019-04-05T11:26:33.395Z,69.30
2019-04-05T11:29:06.839Z,68.90
2019-04-05T11:31:40.624Z,68.50
2019-04-05T11:34:14.698Z,67.80
2019-04-05T11:36:48.490Z,68.40
2019-04-05T11:39:22.726Z,67.70
2019-04-05T11:41:59.579Z,68.00
2019-04-05T11:44:34.895Z,68.50
2019-04-05T11:47:08.285Z,67.80
2019-04-05T11:49:46.054Z,67.30
2019-04-05T11:52:19.752Z,66.70
2019-04-05T11:54:52.917Z,66.40
2019-04-05T11:57:26.334Z,67.30
2019-04-05T11:59:59.348Z,66.50
2019-04-05T12:02:38.039Z,66.60
2019-04-05T12:05:13.838Z,67.90
2019-04-05T12:07:47.339Z,66.70
2019-04-05T12:10:21.224Z,66.70
2019-04-05T12:12:54.556Z,66.50
2019-04-05T12:15:28.545Z,66.30
2019-04-05T12:18:04.242Z,66.70
2019-04-05T12:20:47.903Z,67.20
2019-04-05T12:23:12.028Z,66.60
2019-04-05T12:25:45.259Z,66.30
2019-04-05T12:28:18.416Z,66.20
2019-04-05T12:30:51.883Z,66.50
2019-04-05T12:33:25.064Z,66.10
2019-04-05T12:35:58.642Z,66.10
2019-04-05T12:38:50.051Z,66.00
2019-04-05T12:41:23.746Z,66.50
2019-04-05T12:43:57.152Z,65.40
2019-04-05T12:46:30.815Z,65.50
2019-04-05T12:49:04.455Z,65.40
2019-04-05T12:51:38.077Z,65.60
2019-04-05T12:54:11.643Z,64.80
2019-04-05T12:56:45.083Z,64.70
2019-04-05T12:59:25.182Z,65.00
2019-04-05T13:01:59.539Z,64.80
2019-04-05T13:04:32.143Z,65.10
2019-04-05T13:07:05.592Z,64.70
2019-04-05T13:09:39.217Z,64.40
2019-04-05T13:12:12.462Z,64.60
2019-04-05T13:14:45.883Z,64.90
2019-04-05T13:17:19.112Z,65.00
2019-04-05T13:19:52.518Z,64.80
2019-04-05T13:22:25.906Z,64.80
2019-04-05T13:24:59.886Z,64.40
2019-04-05T13:27:33.291Z,64.90
2019-04-05T13:30:07.185Z,65.00
2019-04-05T13:32:40.534Z,65.10
2019-04-05T13:35:16.888Z,65.40
2019-04-05T13:37:50.658Z,65.00
2019-04-05T13:40:25.099Z,65.90
2019-04-05T13:43:01.387Z,66.00
2019-04-05T13:45:34.307Z,65.20
2019-04-05T13:48:08.960Z,65.70
2019-04-05T13:50:43.252Z,65.70
2019-04-05T13:53:16.886Z,66.20
2019-04-05T13:55:50.110Z,65.90
2019-04-05T13:58:26.162Z,65.80
2019-04-05T14:00:58.139Z,65.60
2019-04-05T14:03:31.352Z,66.20
2019-04-05T14:06:05.088Z,66.90
2019-04-05T14:08:41.161Z,65.60
2019-04-05T14:11:13.369Z,65.70
2019-04-05T14:13:46.794Z,66.20
2019-04-05T14:16:23.401Z,65.60
2019-04-05T14:18:56.558Z,65.40
2019-04-05T14:21:39.766Z,65.80
2019-04-05T14:24:04.608Z,65.80
2019-04-05T14:26:39.705Z,66.40
2019-04-05T14:29:12.740Z,65.10
2019-04-05T14:31:45.990Z,65.20
2019-04-05T14:34:19.465Z,64.80
2019-04-05T14:36:52.972Z,64.80
2019-04-05T14:39:26.401Z,65.30
2019-04-05T14:42:09.491Z,64.90
2019-04-05T14:44:34.915Z,65.10
2019-04-05T14:47:08.964Z,65.00
2019-04-05T14:49:42.177Z,64.60
2019-04-05T14:52:15.731Z,64.90
2019-04-05T14:54:49.318Z,65.60
2019-04-05T14:57:22.695Z,65.00
2019-04-05T14:59:56.355Z,64.90
2019-04-05T15:02:30.150Z,64.70
2019-04-05T15:05:04.719Z,64.50
2019-04-05T15:07:41.685Z,64.60
2019-04-05T15:10:15.242Z,65.00
2019-04-05T15:12:49.190Z,65.00
2019-04-05T15:15:22.941Z,64.90
2019-04-05T15:17:56.454Z,64.10
2019-04-05T15:20:29.594Z,63.50
2019-04-05T15:23:02.775Z,64.40
2019-04-05T15:25:36.682Z,63.70
2019-04-05T15:28:09.805Z,64.00
2019-04-05T15:30:43.200Z,63.70
2019-04-05T15:33:16.429Z,63.60
2019-04-05T15:35:50.166Z,64.20
2019-04-05T15:38:23.871Z,64.20
2019-04-05T15:40:57.601Z,64.40
2019-04-05T15:43:30.699Z,63.70
2019-04-05T15:46:03.957Z,64.00
2019-04-05T15:48:37.487Z,64.00
2019-04-05T15:51:11.443Z,63.70
2019-04-05T15:53:44.522Z,63.20
2019-04-05T15:56:17.591Z,63.60
2019-04-05T15:58:52.419Z,64.00
2019-04-05T16:01:36.977Z,63.50
2019-04-05T16:04:10.108Z,64.00
2019-04-05T16:06:43.859Z,64.60
2019-04-05T16:09:18.949Z,64.90
2019-04-05T16:11:52.120Z,64.70
2019-04-05T16:14:25.566Z,64.40
2019-04-05T16:16:58.631Z,65.10
2019-04-05T16:19:31.818Z,64.80
2019-04-05T16:22:05.116Z,64.90
2019-04-05T16:24:38.871Z,65.20
2019-04-05T16:27:12.271Z,64.60
2019-04-05T16:29:45.853Z,65.00
2019-04-05T16:32:19.012Z,65.50
2019-04-05T16:34:52.070Z,65.70
2019-04-05T16:37:25.088Z,65.70
2019-04-05T16:39:58.617Z,65.90
2019-04-05T16:42:33.804Z,65.80
2019-04-05T16:45:11.546Z,66.20
2019-04-05T16:47:45.208Z,66.30
2019-04-05T16:50:21.380Z,66.70
2019-04-05T16:52:54.132Z,67.10
2019-04-05T16:55:27.567Z,67.30
2019-04-05T16:58:00.926Z,67.60
2019-04-05T17:00:34.683Z,67.70
2019-04-05T17:03:08.226Z,68.10
2019-04-05T17:05:42.199Z,68.70
2019-04-05T17:08:15.696Z,70.10
2019-04-05T17:10:49.489Z,70.30
2019-04-05T17:13:25.826Z,70.20
2019-04-05T17:16:00.867Z,70.00
2019-04-05T17:18:36.603Z,69.40
2019-04-05T17:21:10.558Z,69.70
2019-04-05T17:23:47.280Z,70.20
2019-04-05T17:26:20.868Z,70.20
2019-04-05T17:28:57.722Z,72.80
2019-04-05T17:31:30.878Z,71.20
2019-04-05T17:34:05.859Z,70.80
2019-04-05T17:36:39.731Z,72.00
2019-04-05T17:39:13.289Z,72.00
2019-04-05T17:41:46.601Z,72.60
2019-04-05T17:44:20.099Z,71.30
2019-04-05T17:46:55.995Z,71.60
2019-04-05T17:49:29.341Z,72.60
2019-04-05T17:52:03.198Z,73.20
2019-04-05T17:54:37.195Z,73.00
2019-04-05T17:57:11.041Z,72.10
2019-04-05T17:59:44.716Z,73.30
2019-04-05T18:02:18.431Z,74.30
2019-04-05T18:04:56.580Z,74.20
2019-04-05T18:07:34.188Z,74.30
2019-04-05T18:10:10.479Z,72.70
2019-04-05T18:13:07.901Z,73.50
2019-04-05T18:15:52.369Z,74.30
2019-04-05T18:18:27.383Z,74.40
2019-04-05T18:21:01.569Z,74.60
2019-04-05T18:23:39.473Z,75.40
2019-04-05T18:26:19.257Z,76.00
2019-04-05T18:28:59.225Z,76.60
2019-04-05T18:31:35.108Z,76.60
2019-04-05T18:34:11.377Z,76.50
2019-04-05T18:36:49.725Z,76.20
2019-04-05T18:39:28.160Z,76.70
2019-04-05T18:42:06.795Z,76.90
2019-04-05T18:44:45.353Z,77.90
2019-04-05T18:47:30.048Z,77.70
2019-04-05T18:50:17.150Z,78.10
2019-04-05T18:52:54.571Z,78.50
2019-04-05T18:55:33.939Z,78.80
2019-04-05T18:58:12.129Z,79.40
2019-04-05T19:00:51.834Z,79.90
2019-04-05T19:03:31.609Z,80.40
2019-04-05T19:06:05.285Z,80.60
2019-04-05T19:08:42.336Z,80.80
2019-04-05T19:11:20.958Z,81.00
2019-04-05T19:14:01.702Z,80.40
2019-04-05T19:16:38.950Z,80.50
2019-04-05T19:19:21.546Z,80.40
2019-04-05T19:21:58.125Z,80.20
2019-04-05T19:24:34.525Z,80.20
2019-04-05T19:27:23.351Z,80.30
2019-04-05T19:48:45.000Z,82.50
2019-04-05T19:51:18.860Z,82.70
2019-04-05T19:54:01.240Z,82.50
2019-04-05T19:56:34.193Z,82.80
2019-04-05T19:59:11.800Z,83.20
2019-04-05T20:01:52.211Z,84.20
2019-04-05T20:04:35.291Z,83.20
2019-04-05T20:07:10.636Z,83.50
2019-04-05T20:09:51.367Z,83.80
2019-04-05T20:12:28.013Z,84.10
2019-04-05T20:15:06.760Z,84.30
2019-04-05T20:17:46.596Z,84.60
2019-04-05T20:20:24.907Z,85.00
2019-04-05T20:23:05.385Z,85.20
2019-04-05T20:25:45.403Z,85.80
2019-04-05T20:28:23.625Z,85.70
2019-04-05T20:31:02.302Z,86.30
2019-04-05T20:33:43.974Z,86.60
2019-04-05T20:36:19.941Z,87.50
2019-04-05T20:39:00.415Z,87.80
2019-04-05T20:41:39.478Z,87.40
2019-04-05T20:44:32.625Z,87.40
2019-04-05T20:47:06.423Z,87.40
2019-04-05T20:49:41.443Z,87.70
2019-04-05T20:52:14.654Z,87.80
2019-04-05T20:54:49.599Z,88.20
2019-04-05T20:57:26.481Z,88.70
2019-04-05T21:00:00.193Z,89.40
2019-04-05T21:02:33.461Z,90.10
2019-04-05T21:05:07.373Z,90.30
2019-04-05T21:07:40.561Z,90.20
2019-04-05T21:10:14.532Z,90.00
2019-04-05T21:12:47.795Z,89.70
2019-04-05T21:15:21.247Z,90.00
2019-04-05T21:17:54.723Z,89.40
2019-04-05T21:20:28.314Z,89.60
2019-04-05T21:23:01.638Z,89.50
2019-04-05T21:25:35.188Z,89.50
2019-04-05T21:28:08.956Z,89.80
2019-04-05T21:30:42.651Z,89.60
2019-04-05T21:33:17.035Z,90.00
2019-04-05T21:35:52.518Z,90.30
2019-04-05T21:38:25.744Z,90.20
2019-04-05T21:40:59.384Z,90.80
2019-04-05T21:43:33.480Z,91.20
2019-04-05T21:46:07.123Z,91.70
2019-04-05T21:48:40.239Z,90.90
2019-04-05T21:51:13.641Z,90.60
2019-04-05T21:53:47.511Z,90.70
2019-04-05T21:56:20.933Z,91.10
2019-04-05T21:58:54.441Z,91.40
2019-04-05T22:01:27.811Z,91.30
2019-04-05T22:04:01.304Z,91.20
2019-04-05T22:06:36.391Z,91.20
2019-04-05T22:09:11.587Z,91.30
2019-04-05T22:11:44.506Z,91.30
2019-04-05T22:14:17.845Z,91.40
2019-04-05T22:16:51.045Z,91.40
2019-04-05T22:19:24.239Z,91.40
2019-04-05T22:21:57.984Z,91.40
2019-04-05T22:24:31.221Z,91.30
2019-04-05T22:27:04.434Z,91.30
2019-04-05T22:29:37.459Z,90.70
2019-04-05T22:32:11.621Z,90.80
2019-04-05T22:34:46.441Z,91.50
2019-04-05T22:37:21.237Z,91.30
2019-04-05T22:39:54.367Z,91.30
2019-04-05T22:42:27.567Z,91.30
2019-04-05T22:45:01.186Z,91.50
2019-04-05T22:47:41.012Z,91.70
2019-04-05T22:50:18.032Z,91.90
2019-04-05T22:52:54.843Z,92.00
2019-04-05T22:55:44.673Z,92.30
2019-04-05T22:58:19.768Z,92.30
2019-04-05T23:00:52.845Z,92.40
2019-04-05T23:03:32.638Z,92.10
2019-04-05T23:06:09.359Z,92.50
2019-04-05T23:08:45.370Z,92.80
2019-04-05T23:11:21.844Z,92.60
2019-04-05T23:13:57.944Z,92.90
2019-04-05T23:16:35.917Z,93.30
2019-04-05T23:19:15.321Z,93.30
2019-04-05T23:21:54.867Z,93.30
2019-04-05T23:24:34.713Z,93.30
2019-04-05T23:27:09.836Z,93.20
2019-04-05T23:29:49.768Z,93.10
2019-04-05T23:32:29.327Z,93.10
2019-04-05T23:35:08.066Z,93.60
2019-04-05T23:37:45.918Z,93.60
2019-04-05T23:40:39.466Z,94.30
2019-04-05T23:43:19.184Z,94.60
2019-04-05T23:45:56.455Z,94.60
2019-04-05T23:48:30.726Z,94.60
2019-04-05T23:51:10.469Z,94.60
2019-04-05T23:53:47.104Z,94.70
2019-04-05T23:56:26.057Z,94.80
2019-04-05T23:59:01.989Z,94.80
